Time;durP1;ratioP1;P1;durP2;ratioP2;P2;SDS_P1;SDS_P2;PMS_P1;PMS_P2;Temp;Humidity;BMP_temperature;BMP_pressure;BME280_temperature;BME280_humidity;BME280_pressure;Samples;Min_cycle;Max_cycle;Signal;HPM_P1;HPM_P2
2021/09/16 00:01:49;;;;;;;20.25;12.20;;;17.10;95.80;;;;;;5054881;28;20103;-74
2021/09/16 00:04:15;;;;;;;17.83;12.52;;;17.10;95.80;;;;;;5055203;28;20029;-72
2021/09/16 00:06:41;;;;;;;18.05;11.90;;;17.20;95.60;;;;;;5055152;28;20025;-74
2021/09/16 00:09:06;;;;;;;18.02;12.85;;;17.20;95.90;;;;;;5054399;28;20048;-74
2021/09/16 00:11:32;;;;;;;19.48;12.82;;;17.10;95.90;;;;;;5055221;28;20033;-73
2021/09/16 00:13:58;;;;;;;20.52;14.32;;;17.10;96.20;;;;;;5053582;28;20021;-73
2021/09/16 00:16:23;;;;;;;21.80;14.82;;;17.10;96.20;;;;;;5054675;28;20021;-75
2021/09/16 00:18:49;;;;;;;20.50;13.95;;;17.00;96.60;;;;;;5054944;28;20039;-74
2021/09/16 00:21:15;;;;;;;19.27;13.48;;;17.00;96.80;;;;;;5054568;28;20029;-73
2021/09/16 00:23:40;;;;;;;21.08;13.90;;;17.00;96.90;;;;;;5054516;28;20487;-75
2021/09/16 00:26:06;;;;;;;20.10;13.98;;;17.10;96.80;;;;;;5054465;28;20384;-74
2021/09/16 00:28:32;;;;;;;24.42;15.48;;;17.10;96.90;;;;;;5054701;28;20025;-74
2021/09/16 00:30:58;;;;;;;21.38;15.48;;;17.10;97.10;;;;;;5054543;28;20029;-73
2021/09/16 00:33:23;;;;;;;23.25;14.88;;;17.00;97.20;;;;;;5054312;28;20020;-73
2021/09/16 00:35:49;;;;;;;25.42;16.90;;;17.00;97.50;;;;;;5054262;28;20028;-73
2021/09/16 00:38:14;;;;;;;26.17;16.95;;;17.10;97.40;;;;;;5054242;28;20024;-75
2021/09/16 00:40:40;;;;;;;23.33;16.05;;;17.10;97.60;;;;;;5054179;28;20118;-74
2021/09/16 00:43:06;;;;;;;23.45;17.15;;;17.10;97.90;;;;;;5054179;28;20104;-74
2021/09/16 00:45:31;;;;;;;26.00;16.98;;;17.10;97.80;;;;;;5054069;28;20025;-73
2021/09/16 00:47:57;;;;;;;25.90;18.83;;;17.10;97.90;;;;;;5054309;28;20509;-73
2021/09/16 00:50:24;;;;;;;24.98;18.77;;;17.10;97.80;;;;;;5054013;28;20395;-73
2021/09/16 00:52:51;;;;;;;26.50;18.95;;;17.10;98.10;;;;;;5052599;28;20513;-72
2021/09/16 00:55:19;;;;;;;27.83;19.63;;;17.00;98.00;;;;;;5054176;28;20378;-73
2021/09/16 00:57:51;;;;;;;29.38;20.40;;;17.00;98.20;;;;;;5053903;28;20025;-75
2021/09/16 01:00:19;;;;;;;30.20;21.23;;;17.00;98.20;;;;;;5053771;28;20065;-73
2021/09/16 01:02:45;;;;;;;29.13;19.25;;;17.00;98.50;;;;;;5054348;28;20020;-74
2021/09/16 01:05:11;;;;;;;26.15;19.20;;;17.00;98.50;;;;;;5053767;28;20428;-74
2021/09/16 01:07:39;;;;;;;28.05;19.45;;;17.00;98.40;;;;;;5053715;28;20045;-72
2021/09/16 01:10:07;;;;;;;28.52;20.10;;;17.10;98.20;;;;;;5053619;28;20032;-74
2021/09/16 01:12:33;;;;;;;29.30;20.00;;;17.10;98.30;;;;;;5052194;28;20028;-74
2021/09/16 01:14:59;;;;;;;27.88;20.08;;;17.20;98.00;;;;;;5053842;28;20028;-73
2021/09/16 01:17:24;;;;;;;26.92;18.50;;;17.20;98.00;;;;;;5053775;28;20384;-74
2021/09/16 01:19:50;;;;;;;26.50;18.33;;;17.20;98.00;;;;;;5053446;28;20029;-75
2021/09/16 01:22:21;;;;;;;27.17;19.73;;;17.30;97.60;;;;;;5053397;28;20036;-73
2021/09/16 01:24:47;;;;;;;31.63;20.52;;;17.20;97.90;;;;;;5053148;28;20150;-73
2021/09/16 01:27:13;;;;;;;30.63;21.90;;;17.20;98.00;;;;;;5053336;28;20021;-73
2021/09/16 01:29:39;;;;;;;27.75;19.98;;;17.10;98.30;;;;;;5053862;28;20383;-74
2021/09/16 01:32:06;;;;;;;26.75;19.15;;;17.10;98.60;;;;;;5053204;28;20021;-74
2021/09/16 01:34:32;;;;;;;28.02;19.88;;;17.10;98.60;;;;;;5053305;28;20529;-74
2021/09/16 01:36:58;;;;;;;31.80;20.80;;;17.10;98.70;;;;;;5053252;28;20101;-73
2021/09/16 01:39:25;;;;;;;29.65;21.30;;;17.10;98.70;;;;;;5053213;28;20106;-73
2021/09/16 01:41:51;;;;;;;28.58;20.02;;;17.10;98.60;;;;;;5053146;28;20106;-73
2021/09/16 01:44:16;;;;;;;32.13;20.75;;;17.20;98.50;;;;;;5053708;28;20052;-72
2021/09/16 01:46:43;;;;;;;32.38;22.23;;;17.20;98.50;;;;;;5053125;28;20029;-74
2021/09/16 01:49:09;;;;;;;31.60;21.77;;;17.20;98.30;;;;;;5053094;28;20056;-73
2021/09/16 01:51:35;;;;;;;31.60;21.58;;;17.20;98.40;;;;;;5053206;28;20549;-73
2021/09/16 01:54:02;;;;;;;29.65;20.63;;;17.20;98.50;;;;;;5053042;28;20075;-73
2021/09/16 01:56:28;;;;;;;26.50;18.95;;;17.20;98.40;;;;;;5053349;28;20027;-74
2021/09/16 01:58:54;;;;;;;29.23;21.15;;;17.10;98.70;;;;;;5051683;28;20108;-73
2021/09/16 02:01:20;;;;;;;28.17;19.65;;;17.10;98.60;;;;;;5053010;28;20052;-72
2021/09/16 02:03:46;;;;;;;28.13;20.50;;;17.10;98.50;;;;;;5052962;28;20055;-73
2021/09/16 02:06:12;;;;;;;37.60;22.38;;;17.10;98.70;;;;;;5052937;28;20488;-73
2021/09/16 02:08:38;;;;;;;27.35;19.30;;;17.10;98.70;;;;;;5052788;28;20514;-73
2021/09/16 02:11:04;;;;;;;29.35;20.80;;;17.10;98.70;;;;;;5053130;28;20018;-74
2021/09/16 02:13:30;;;;;;;29.02;19.23;;;17.10;98.80;;;;;;5053183;28;20022;-74
2021/09/16 02:15:56;;;;;;;26.55;19.35;;;17.10;98.70;;;;;;5052875;28;20017;-74
2021/09/16 02:18:21;;;;;;;29.83;20.85;;;17.10;98.90;;;;;;5052860;28;20407;-74
2021/09/16 02:20:47;;;;;;;28.27;18.83;;;17.00;99.20;;;;;;5052833;28;20029;-74
2021/09/16 02:23:13;;;;;;;26.30;18.88;;;17.00;99.20;;;;;;5052765;28;20014;-73
2021/09/16 02:25:38;;;;;;;29.67;20.70;;;16.90;99.00;;;;;;5052752;28;20028;-73
2021/09/16 02:28:04;;;;;;;30.08;21.00;;;17.00;99.30;;;;;;5053005;28;20028;-74
2021/09/16 02:30:30;;;;;;;34.05;22.10;;;16.90;99.40;;;;;;5052725;28;20071;-74
2021/09/16 02:32:56;;;;;;;26.88;18.70;;;16.80;99.70;;;;;;5052639;28;20021;-73
2021/09/16 02:35:22;;;;;;;27.42;19.77;;;16.90;99.60;;;;;;5052683;28;20088;-75
2021/09/16 02:37:47;;;;;;;30.05;20.83;;;17.00;99.40;;;;;;5054009;28;20017;-74
2021/09/16 02:40:13;;;;;;;30.98;20.48;;;17.00;99.50;;;;;;5055213;28;20021;-74
2021/09/16 02:42:39;;;;;;;32.97;21.05;;;17.00;99.50;;;;;;5056458;28;20467;-74
2021/09/16 02:45:07;;;;;;;30.02;20.90;;;17.00;99.60;;;;;;5056394;28;20040;-75
2021/09/16 02:47:33;;;;;;;30.00;20.00;;;17.00;99.60;;;;;;5056330;28;20055;-74
2021/09/16 02:49:58;;;;;;;32.45;21.60;;;17.00;99.70;;;;;;5056249;28;20476;-74
2021/09/16 02:52:24;;;;;;;32.75;21.60;;;17.00;99.70;;;;;;5056178;28;20025;-74
2021/09/16 02:54:50;;;;;;;30.27;20.73;;;17.00;99.90;;;;;;5056712;28;20052;-73
2021/09/16 02:57:15;;;;;;;29.70;20.73;;;17.00;99.90;;;;;;5056152;28;20017;-75
2021/09/16 02:59:41;;;;;;;30.40;20.65;;;17.00;99.90;;;;;;5056322;28;20482;-74
2021/09/16 03:02:07;;;;;;;29.83;20.83;;;17.00;99.90;;;;;;5056073;28;20564;-74
2021/09/16 03:04:32;;;;;;;34.85;22.15;;;17.10;99.90;;;;;;5056049;28;20024;-73
2021/09/16 03:06:58;;;;;;;33.90;23.17;;;17.00;99.90;;;;;;5055756;28;20106;-74
2021/09/16 03:09:23;;;;;;;37.17;21.75;;;17.10;99.90;;;;;;5056234;28;20045;-73
2021/09/16 03:11:50;;;;;;;31.13;21.58;;;17.10;99.90;;;;;;5056041;28;20029;-74
2021/09/16 03:14:16;;;;;;;34.58;22.67;;;17.00;99.90;;;;;;5055871;28;20390;-74
2021/09/16 03:16:42;;;;;;;29.98;22.13;;;17.00;99.90;;;;;;5056081;28;20422;-73
2021/09/16 03:19:08;;;;;;;30.90;22.05;;;17.00;99.90;;;;;;5054803;28;20067;-74
2021/09/16 03:21:34;;;;;;;34.33;23.48;;;17.10;99.90;;;;;;5055724;28;20032;-75
2021/09/16 03:24:00;;;;;;;31.83;21.23;;;17.10;99.90;;;;;;5055644;28;20029;-74
2021/09/16 03:26:26;;;;;;;32.25;23.67;;;17.10;99.90;;;;;;5054356;28;20107;-72
2021/09/16 03:28:51;;;;;;;30.88;22.27;;;17.20;99.90;;;;;;5055563;28;20108;-73
2021/09/16 03:31:17;;;;;;;31.83;21.40;;;17.20;99.90;;;;;;5055435;28;20032;-74
2021/09/16 03:33:43;;;;;;;30.08;21.73;;;17.20;99.90;;;;;;5055484;28;20395;-74
2021/09/16 03:36:08;;;;;;;28.83;21.48;;;17.20;99.90;;;;;;5055429;28;20057;-73
2021/09/16 03:38:34;;;;;;;32.80;20.90;;;17.20;99.90;;;;;;5055358;28;20057;-73
2021/09/16 03:41:00;;;;;;;29.80;22.45;;;17.10;99.90;;;;;;5055606;28;20013;-73
2021/09/16 03:43:26;;;;;;;33.15;22.05;;;17.10;99.90;;;;;;5055561;28;20036;-72
2021/09/16 03:45:51;;;;;;;31.88;21.83;;;17.00;99.90;;;;;;5055256;28;20017;-73
2021/09/16 03:48:17;;;;;;;36.03;24.05;;;17.00;99.90;;;;;;5054959;28;20099;-74
2021/09/16 03:50:42;;;;;;;31.95;22.38;;;17.10;99.90;;;;;;5055175;28;20108;-73
2021/09/16 03:53:08;;;;;;;27.85;20.60;;;17.10;99.90;;;;;;5055086;28;20025;-73
2021/09/16 03:55:34;;;;;;;36.38;23.25;;;17.20;99.90;;;;;;5055123;28;20431;-73
2021/09/16 03:57:59;;;;;;;34.92;21.80;;;17.20;99.90;;;;;;5055217;28;20021;-73
2021/09/16 04:00:25;;;;;;;32.72;22.15;;;17.20;99.90;;;;;;5055225;28;20025;-74
2021/09/16 04:02:51;;;;;;;31.65;22.02;;;17.10;99.90;;;;;;5055230;28;20048;-73
2021/09/16 04:05:17;;;;;;;31.67;22.00;;;17.10;99.90;;;;;;5054903;28;20475;-74
2021/09/16 04:07:42;;;;;;;33.60;21.70;;;17.10;99.90;;;;;;5054596;28;20158;-74
2021/09/16 04:10:09;;;;;;;30.55;21.77;;;17.10;99.90;;;;;;5055094;28;20040;-73
2021/09/16 04:12:36;;;;;;;30.58;21.35;;;17.20;99.90;;;;;;5055236;28;20021;-74
2021/09/16 04:15:02;;;;;;;28.83;19.75;;;17.20;99.90;;;;;;5054733;28;20106;-73
2021/09/16 04:17:28;;;;;;;34.60;23.95;;;17.20;99.90;;;;;;5054716;28;20029;-73
2021/09/16 04:19:54;;;;;;;35.28;24.35;;;17.30;99.90;;;;;;5054643;28;20043;-73
2021/09/16 04:22:19;;;;;;;33.53;24.58;;;17.30;99.80;;;;;;5054599;28;20487;-73
2021/09/16 04:24:45;;;;;;;33.85;23.27;;;17.30;99.90;;;;;;5054483;28;20025;-74
2021/09/16 04:27:13;;;;;;;31.92;22.42;;;17.20;99.90;;;;;;5055060;28;20087;-73
2021/09/16 04:29:39;;;;;;;32.45;23.38;;;17.20;99.90;;;;;;5054450;28;20063;-74
2021/09/16 04:32:05;;;;;;;36.03;25.80;;;17.20;99.90;;;;;;5054320;28;20047;-73
2021/09/16 04:34:31;;;;;;;38.00;26.75;;;17.30;99.90;;;;;;5054627;28;20021;-74
2021/09/16 04:36:57;;;;;;;42.33;27.08;;;17.30;99.90;;;;;;5054296;28;20437;-73
2021/09/16 04:39:22;;;;;;;35.08;24.65;;;17.20;99.90;;;;;;5054218;28;20479;-73
2021/09/16 04:41:48;;;;;;;34.25;24.67;;;17.10;99.90;;;;;;5054182;28;20044;-74
2021/09/16 04:44:14;;;;;;;38.50;24.05;;;17.10;99.90;;;;;;5054147;28;20399;-75
2021/09/16 04:46:40;;;;;;;36.22;24.83;;;17.10;99.90;;;;;;5054117;28;20128;-74
2021/09/16 04:49:06;;;;;;;39.50;27.45;;;17.20;99.90;;;;;;5054617;28;20067;-73
2021/09/16 04:51:32;;;;;;;44.30;30.13;;;17.20;99.90;;;;;;5053948;28;20025;-72
2021/09/16 04:53:57;;;;;;;38.38;26.67;;;17.20;99.90;;;;;;5053975;28;20020;-74
2021/09/16 04:56:23;;;;;;;40.42;27.52;;;17.10;99.90;;;;;;5053867;28;20053;-74
2021/09/16 04:58:49;;;;;;;47.58;29.63;;;17.10;99.90;;;;;;5053531;28;20025;-73
2021/09/16 05:01:14;;;;;;;39.58;27.17;;;17.10;99.90;;;;;;5053764;28;20431;-75
2021/09/16 05:03:40;;;;;;;40.75;28.88;;;17.10;99.90;;;;;;5053775;28;20029;-73
2021/09/16 05:06:05;;;;;;;43.17;28.90;;;17.10;99.90;;;;;;5053748;28;20044;-74
2021/09/16 05:08:31;;;;;;;41.03;27.42;;;17.10;99.90;;;;;;5053675;28;20052;-74
2021/09/16 05:10:57;;;;;;;38.75;26.55;;;17.00;99.90;;;;;;5053589;28;20391;-74
2021/09/16 05:13:23;;;;;;;36.47;26.05;;;16.90;99.90;;;;;;5054175;28;20017;-74
2021/09/16 05:15:48;;;;;;;39.78;27.38;;;16.80;99.90;;;;;;5053822;28;20025;-74
2021/09/16 05:18:14;;;;;;;39.33;27.35;;;16.80;99.90;;;;;;5053792;28;20025;-73
2021/09/16 05:20:40;;;;;;;40.35;27.77;;;16.70;99.90;;;;;;5053569;28;20103;-74
2021/09/16 05:23:05;;;;;;;42.95;28.60;;;16.70;99.90;;;;;;5053426;28;20032;-74
2021/09/16 05:25:31;;;;;;;39.78;25.95;;;16.70;99.90;;;;;;5053404;28;20029;-74
2021/09/16 05:27:57;;;;;;;40.40;27.25;;;16.60;99.90;;;;;;5053407;28;20021;-73
2021/09/16 05:30:23;;;;;;;40.08;27.02;;;16.60;99.90;;;;;;5053336;28;20395;-72
2021/09/16 05:32:48;;;;;;;39.67;27.42;;;16.50;99.90;;;;;;5053825;28;20021;-73
2021/09/16 05:35:14;;;;;;;40.03;26.38;;;16.60;99.90;;;;;;5053336;28;20021;-74
2021/09/16 05:37:40;;;;;;;40.75;27.70;;;16.70;99.90;;;;;;5053261;28;20024;-74
2021/09/16 05:40:06;;;;;;;41.22;28.25;;;16.70;99.90;;;;;;5053245;28;20546;-74
2021/09/16 05:42:32;;;;;;;39.35;28.73;;;16.70;99.90;;;;;;5053168;28;20372;-73
2021/09/16 05:44:58;;;;;;;40.17;28.25;;;16.80;99.90;;;;;;5051895;28;20039;-73
2021/09/16 05:47:23;;;;;;;45.00;29.27;;;16.80;99.90;;;;;;5053111;28;20450;-72
2021/09/16 05:49:49;;;;;;;37.00;26.35;;;16.80;99.90;;;;;;5053073;28;20044;-73
2021/09/16 05:52:16;;;;;;;37.97;27.33;;;16.90;99.90;;;;;;5052977;28;20025;-74
2021/09/16 05:54:42;;;;;;;47.65;31.85;;;17.00;99.90;;;;;;5053036;28;20032;-74
2021/09/16 05:57:08;;;;;;;42.47;28.30;;;17.00;99.90;;;;;;5053291;28;20375;-74
2021/09/16 05:59:33;;;;;;;38.30;26.58;;;16.90;99.90;;;;;;5052933;28;20024;-74
2021/09/16 06:01:59;;;;;;;38.33;25.70;;;16.90;99.90;;;;;;5052985;28;20426;-74
2021/09/16 06:04:25;;;;;;;43.17;29.35;;;16.90;99.90;;;;;;5052938;28;20555;-73
2021/09/16 06:06:51;;;;;;;39.42;26.52;;;17.00;99.90;;;;;;5053334;28;20028;-74
2021/09/16 06:09:16;;;;;;;38.88;27.50;;;16.90;99.90;;;;;;5052879;28;20033;-74
2021/09/16 06:11:42;;;;;;;38.30;27.52;;;16.90;99.90;;;;;;5055547;28;20035;-73
2021/09/16 06:14:08;;;;;;;36.83;26.58;;;16.90;99.90;;;;;;5056978;28;20025;-74
2021/09/16 06:16:34;;;;;;;40.70;27.45;;;17.00;99.90;;;;;;5056954;28;20044;-73
2021/09/16 06:19:00;;;;;;;35.88;25.58;;;17.00;99.90;;;;;;5056875;28;20479;-74
2021/09/16 06:21:26;;;;;;;38.67;26.52;;;17.00;99.90;;;;;;5056835;28;20028;-73
2021/09/16 06:23:51;;;;;;;36.53;25.35;;;17.00;99.90;;;;;;5056837;28;20029;-73
2021/09/16 06:26:17;;;;;;;39.88;28.77;;;17.00;99.90;;;;;;5056810;28;20021;-74
2021/09/16 06:28:43;;;;;;;38.17;25.52;;;17.10;99.90;;;;;;5056985;28;20029;-74
2021/09/16 06:31:09;;;;;;;39.85;27.17;;;17.10;99.90;;;;;;5057149;28;20032;-73
2021/09/16 06:33:34;;;;;;;39.55;27.80;;;17.10;99.90;;;;;;5056625;28;20426;-74
2021/09/16 06:36:00;;;;;;;37.15;26.13;;;17.10;99.90;;;;;;5056586;28;20096;-73
2021/09/16 06:38:26;;;;;;;39.05;27.30;;;17.10;99.90;;;;;;5056762;28;20021;-72
2021/09/16 06:40:51;;;;;;;36.47;26.85;;;17.20;99.90;;;;;;5055185;28;20138;-74
2021/09/16 06:43:17;;;;;;;37.42;24.42;;;17.00;99.90;;;;;;5056456;28;20032;-74
2021/09/16 06:45:43;;;;;;;37.13;24.20;;;17.00;99.90;;;;;;5056478;28;20071;-73
2021/09/16 06:48:08;;;;;;;33.92;24.42;;;17.00;99.90;;;;;;5056374;28;20112;-74
2021/09/16 06:50:34;;;;;;;30.35;23.17;;;17.00;99.90;;;;;;5056342;28;20028;-73
2021/09/16 06:53:00;;;;;;;30.73;23.45;;;17.00;99.90;;;;;;5056197;28;20032;-75
2021/09/16 06:55:26;;;;;;;33.88;24.65;;;17.00;99.90;;;;;;5056961;28;20028;-78
2021/09/16 06:57:51;;;;;;;30.65;23.02;;;17.10;99.90;;;;;;5068078;28;20064;-76
2021/09/16 07:00:17;;;;;;;36.25;24.25;;;17.10;99.90;;;;;;5056595;28;20426;-77
2021/09/16 07:02:48;;;;;;;33.60;23.05;;;17.20;99.90;;;;;;5058206;28;20060;-75
2021/09/16 07:05:14;;;;;;;31.02;21.90;;;17.20;99.90;;;;;;5068291;28;20104;-73
2021/09/16 07:07:40;;;;;;;31.33;21.45;;;17.10;99.90;;;;;;5057000;28;20566;-72
2021/09/16 07:10:06;;;;;;;30.95;23.00;;;17.00;99.90;;;;;;5056285;28;20025;-76
2021/09/16 07:12:32;;;;;;;31.23;22.83;;;17.00;99.90;;;;;;5056701;28;20043;-76
2021/09/16 07:14:58;;;;;;;31.42;23.75;;;17.00;99.90;;;;;;5059913;28;20095;-71
2021/09/16 07:17:24;;;;;;;32.70;21.75;;;17.10;99.90;;;;;;5075487;28;20017;-71
2021/09/16 07:19:50;;;;;;;30.35;22.77;;;17.10;99.90;;;;;;5068443;28;20027;-80
2021/09/16 07:22:16;;;;;;;38.03;25.52;;;17.10;99.90;;;;;;5072784;28;20037;-78
2021/09/16 07:24:42;;;;;;;36.83;25.42;;;17.10;99.90;;;;;;5076381;28;20016;-79
2021/09/16 07:27:08;;;;;;;30.33;21.90;;;17.10;99.90;;;;;;5075885;28;20074;-76
2021/09/16 07:29:33;;;;;;;29.35;20.88;;;17.10;99.90;;;;;;5073841;28;20103;-80
2021/09/16 07:31:59;;;;;;;31.27;23.00;;;17.00;99.90;;;;;;5075496;28;20032;-77
2021/09/16 07:34:25;;;;;;;29.48;21.80;;;17.10;99.90;;;;;;5065332;28;20013;-80
2021/09/16 07:36:51;;;;;;;29.50;21.25;;;17.10;99.90;;;;;;5055735;28;20021;-76
2021/09/16 07:39:19;;;;;;;27.92;21.25;;;17.10;99.90;;;;;;5062421;28;20095;-77
2021/09/16 07:41:46;;;;;;;29.85;20.60;;;17.10;99.90;;;;;;5057899;28;20052;-71
2021/09/16 07:44:12;;;;;;;42.80;34.35;;;17.20;99.90;;;;;;5055329;28;20021;-73
2021/09/16 07:46:38;;;;;;;28.70;20.58;;;17.20;99.90;;;;;;5055048;28;20032;-72
2021/09/16 07:49:04;;;;;;;30.25;20.65;;;17.20;99.90;;;;;;5071207;28;20046;-78
2021/09/16 07:51:30;;;;;;;31.60;22.70;;;17.30;99.90;;;;;;5075145;28;20108;-78
2021/09/16 07:53:56;;;;;;;33.42;22.73;;;17.20;99.90;;;;;;5065419;28;20048;-77
2021/09/16 07:56:21;;;;;;;35.95;22.65;;;17.30;99.90;;;;;;5055330;28;20057;-78
2021/09/16 07:58:47;;;;;;;36.65;24.35;;;17.10;99.90;;;;;;5065652;28;20032;-78
2021/09/16 08:01:14;;;;;;;35.83;22.88;;;17.10;99.90;;;;;;5075019;28;20025;-78
2021/09/16 08:03:39;;;;;;;37.00;23.75;;;16.90;99.90;;;;;;5074277;28;20437;-78
2021/09/16 08:06:06;;;;;;;30.80;21.30;;;16.90;99.90;;;;;;5062912;28;20035;-77
2021/09/16 08:08:31;;;;;;;36.08;23.27;;;16.90;99.90;;;;;;5074972;28;20037;-79
2021/09/16 08:10:58;;;;;;;35.28;23.05;;;16.90;99.90;;;;;;5074102;28;20475;-79
2021/09/16 08:13:24;;;;;;;38.60;26.05;;;17.00;99.90;;;;;;5070849;28;20046;-78
2021/09/16 08:15:51;;;;;;;32.13;21.77;;;17.00;99.90;;;;;;5063508;28;20414;-77
2021/09/16 08:18:17;;;;;;;35.08;22.38;;;17.00;99.90;;;;;;5056374;28;20021;-77
2021/09/16 08:20:47;;;;;;;32.97;22.25;;;17.10;99.90;;;;;;5072389;28;20032;-76
2021/09/16 08:23:13;;;;;;;32.38;21.38;;;17.10;99.90;;;;;;5074819;28;20099;-76
2021/09/16 08:25:39;;;;;;;35.30;21.33;;;17.20;99.90;;;;;;5058666;28;20064;-70
2021/09/16 08:28:04;;;;;;;32.50;21.58;;;17.30;99.90;;;;;;5068470;28;20059;-70
2021/09/16 08:30:30;;;;;;;32.58;21.92;;;17.50;99.90;;;;;;5073009;28;20118;-75
2021/09/16 08:32:56;;;;;;;32.65;21.00;;;17.50;99.90;;;;;;5060990;28;20035;-77
2021/09/16 08:35:22;;;;;;;28.77;20.80;;;17.50;99.90;;;;;;5069590;28;20024;-76
2021/09/16 08:37:49;;;;;;;28.15;19.52;;;17.60;99.90;;;;;;5059882;28;20383;-75
2021/09/16 08:40:16;;;;;;;29.10;19.88;;;17.70;99.90;;;;;;5074000;28;20446;-75
2021/09/16 08:42:43;;;;;;;27.13;18.58;;;17.70;99.90;;;;;;5068360;28;20029;-75
2021/09/16 08:45:14;;;;;;;24.88;19.25;;;17.80;99.90;;;;;;5068887;28;20048;-76
2021/09/16 08:47:41;;;;;;;28.30;19.80;;;17.90;99.90;;;;;;5064825;28;20425;-75
2021/09/16 08:50:09;;;;;;;27.63;20.65;;;17.90;99.90;;;;;;5054942;28;20036;-78
2021/09/16 08:52:37;;;;;;;25.48;18.98;;;17.90;99.90;;;;;;5054255;28;20055;-78
2021/09/16 08:55:08;;;;;;;27.58;19.70;;;17.90;99.90;;;;;;5055550;28;20025;-77
2021/09/16 08:57:38;;;;;;;27.30;19.42;;;17.80;99.90;;;;;;5065827;28;20027;-79
2021/09/16 09:00:18;;;;;;;30.90;22.50;;;17.80;99.90;;;;;;5063449;28;20040;-80
2021/09/16 09:02:45;;;;;;;;;;;17.90;99.90;;;;;;5066310;28;20029;-78
2021/09/16 09:05:12;;;;;;;27.25;19.63;;;17.90;99.90;;;;;;5054222;28;19941;-79
2021/09/16 09:07:44;;;;;;;27.30;18.48;;;18.10;99.90;;;;;;5062419;28;20053;-78
2021/09/16 09:10:30;;;;;;;28.92;19.45;;;18.10;99.90;;;;;;5052246;28;20025;-81
2021/09/16 09:12:57;;;;;;;26.08;18.58;;;17.90;99.40;;;;;;5065122;28;20029;-70
2021/09/16 09:15:23;;;;;;;25.63;18.63;;;17.90;99.90;;;;;;5070838;28;20489;-69
2021/09/16 09:18:03;;;;;;;27.77;19.08;;;17.90;99.50;;;;;;5073059;28;20028;-69
2021/09/16 09:20:30;;;;;;;23.95;17.88;;;18.00;99.10;;;;;;5065516;28;20110;-69
2021/09/16 09:22:56;;;;;;;26.73;17.55;;;17.90;99.60;;;;;;5058118;28;20029;-68
2021/09/16 09:25:24;;;;;;;26.38;18.73;;;18.00;99.50;;;;;;5063389;28;20033;-69
2021/09/16 09:27:52;;;;;;;23.45;17.63;;;18.00;99.00;;;;;;5067765;28;20036;-69
2021/09/16 09:30:21;;;;;;;24.05;17.92;;;18.10;98.20;;;;;;5053718;28;20032;-69
2021/09/16 09:32:58;;;;;;;24.80;18.65;;;18.30;97.90;;;;;;5062392;28;20557;-69
2021/09/16 09:35:31;;;;;;;24.10;18.27;;;18.50;97.60;;;;;;5063659;28;20017;-69
2021/09/16 09:37:59;;;;;;;24.38;17.63;;;18.60;97.30;;;;;;5062153;28;20114;-69
2021/09/16 09:40:37;;;;;;;23.70;17.52;;;18.80;97.00;;;;;;5059943;28;20445;-69
2021/09/16 09:43:20;;;;;;;24.70;18.42;;;18.90;96.60;;;;;;5053622;28;20029;-76
2021/09/16 09:46:15;;;;;;;23.88;17.20;;;18.80;96.50;;;;;;5071691;28;20020;-77
2021/09/16 09:49:01;;;;;;;24.13;18.25;;;18.70;96.60;;;;;;5072784;28;20024;-80
2021/09/16 09:51:45;;;;;;;19.65;15.10;;;18.80;96.90;;;;;;5072432;28;20441;-77
2021/09/16 09:54:32;;;;;;;20.70;15.75;;;19.20;96.20;;;;;;5070914;28;20028;-76
2021/09/16 09:57:04;;;;;;;20.98;15.30;;;19.30;94.80;;;;;;5072061;28;20425;-73
2021/09/16 09:59:48;;;;;;;18.02;14.30;;;19.30;95.00;;;;;;5072132;28;20050;-77
2021/09/16 10:02:15;;;;;;;21.33;14.98;;;19.30;95.70;;;;;;5071255;28;20491;-77
2021/09/16 10:04:42;;;;;;;21.00;15.02;;;19.30;95.60;;;;;;5071303;28;20505;-76
2021/09/16 10:07:08;;;;;;;18.05;14.20;;;20.10;93.20;;;;;;5072775;28;20039;-76
2021/09/16 10:09:34;;;;;;;14.65;11.70;;;20.90;92.80;;;;;;5062633;28;20104;-76
2021/09/16 10:12:00;;;;;;;14.88;11.93;;;21.60;90.40;;;;;;5052919;28;20033;-76
2021/09/16 10:14:26;;;;;;;17.17;11.55;;;21.50;86.90;;;;;;5053551;28;20017;-76
2021/09/16 10:16:52;;;;;;;15.13;11.75;;;20.90;90.30;;;;;;5052894;28;20480;-76
2021/09/16 10:19:18;;;;;;;13.43;10.48;;;20.90;90.40;;;;;;5052098;28;20455;-76
2021/09/16 10:21:44;;;;;;;14.50;11.90;;;21.50;88.00;;;;;;5053161;28;20100;-77
2021/09/16 10:24:13;;;;;;;13.95;11.20;;;21.70;87.60;;;;;;5053490;28;20386;-77
2021/09/16 10:26:47;;;;;;;13.13;10.48;;;21.70;85.30;;;;;;5052817;28;20070;-78
2021/09/16 10:29:31;;;;;;;12.70;10.13;;;21.60;86.90;;;;;;5053390;28;20043;-78
2021/09/16 10:32:05;;;;;;;13.38;10.35;;;21.70;88.20;;;;;;5052878;28;20102;-78
2021/09/16 10:34:46;;;;;;;12.80;10.00;;;21.50;87.20;;;;;;5055802;28;20016;-75
2021/09/16 10:37:17;;;;;;;10.80;8.55;;;21.30;86.20;;;;;;5071427;28;20115;-76
2021/09/16 10:39:45;;;;;;;12.02;9.07;;;21.40;84.90;;;;;;5073265;28;20028;-75
2021/09/16 10:42:12;;;;;;;11.43;9.32;;;21.70;84.40;;;;;;5073109;28;20382;-75
2021/09/16 10:44:39;;;;;;;12.02;9.75;;;21.90;84.00;;;;;;5073405;28;20054;-74
2021/09/16 10:47:16;;;;;;;13.65;10.40;;;22.00;83.20;;;;;;5073097;28;20024;-73
2021/09/16 10:49:42;;;;;;;13.07;8.88;;;21.90;84.10;;;;;;5072807;28;20398;-74
2021/09/16 10:52:18;;;;;;;14.02;9.50;;;21.60;84.60;;;;;;5073081;28;20028;-75
2021/09/16 10:54:54;;;;;;;14.10;10.65;;;21.50;85.20;;;;;;5072828;28;20083;-75
2021/09/16 10:57:28;;;;;;;12.40;9.80;;;21.30;84.10;;;;;;5071682;28;20029;-73
2021/09/16 10:59:54;;;;;;;12.15;9.30;;;21.30;85.00;;;;;;5076533;28;20020;-74
2021/09/16 11:02:46;;;;;;;12.20;9.40;;;21.20;84.60;;;;;;5076641;28;20363;-74
2021/09/16 11:05:21;;;;;;;12.27;10.40;;;21.10;86.70;;;;;;5076195;28;20478;-75
2021/09/16 11:07:49;;;;;;;14.00;9.90;;;21.20;85.00;;;;;;5075984;28;20059;-75
2021/09/16 11:10:21;;;;;;;12.95;9.68;;;21.30;83.70;;;;;;5075927;28;20021;-75
2021/09/16 11:13:05;;;;;;;11.88;8.60;;;21.40;83.30;;;;;;5076403;28;20548;-75
2021/09/16 11:15:38;;;;;;;11.40;8.07;;;21.30;86.30;;;;;;5076429;28;20016;-76
2021/09/16 11:18:16;;;;;;;13.45;9.35;;;21.30;86.40;;;;;;5076385;28;20451;-75
2021/09/16 11:20:45;;;;;;;11.68;9.00;;;21.30;84.60;;;;;;5076050;28;20028;-76
2021/09/16 11:23:12;;;;;;;11.98;9.07;;;21.40;84.60;;;;;;5075706;28;20041;-74
2021/09/16 11:25:40;;;;;;;12.50;9.23;;;21.50;85.70;;;;;;5075706;28;20032;-75
2021/09/16 11:28:06;;;;;;;11.23;8.95;;;21.60;84.00;;;;;;5075623;28;20035;-75
2021/09/16 11:30:35;;;;;;;11.43;8.73;;;21.50;83.30;;;;;;5075598;28;20550;-74
2021/09/16 11:33:07;;;;;;;11.75;8.48;;;21.60;82.30;;;;;;5075708;28;20020;-75
2021/09/16 11:35:33;;;;;;;11.60;8.25;;;21.50;83.50;;;;;;5075524;28;20023;-75
2021/09/16 11:38:00;;;;;;;9.73;7.50;;;21.30;83.70;;;;;;5075472;28;20082;-76
2021/09/16 11:40:32;;;;;;;12.85;8.88;;;21.20;84.80;;;;;;5075912;28;20536;-74
2021/09/16 11:43:00;;;;;;;12.60;8.93;;;21.20;86.00;;;;;;5075652;28;20078;-74
2021/09/16 11:45:28;;;;;;;12.10;8.82;;;21.10;87.80;;;;;;5075330;28;20024;-75
2021/09/16 11:47:55;;;;;;;11.60;8.90;;;21.10;87.70;;;;;;5075257;28;20086;-75
2021/09/16 11:50:23;;;;;;;12.77;9.23;;;21.10;85.80;;;;;;5075224;28;20020;-73
2021/09/16 11:52:56;;;;;;;12.93;8.90;;;21.20;86.40;;;;;;5075081;28;20030;-75
2021/09/16 11:55:22;;;;;;;11.82;8.88;;;21.20;84.20;;;;;;5075747;28;20450;-73
2021/09/16 11:58:00;;;;;;;11.23;8.40;;;21.20;85.70;;;;;;5075084;28;20481;-75
2021/09/16 12:00:33;;;;;;;12.18;8.48;;;21.20;86.60;;;;;;5075013;28;20073;-76
2021/09/16 12:02:59;;;;;;;12.60;8.98;;;21.20;84.70;;;;;;5075137;28;20068;-75
2021/09/16 12:05:36;;;;;;;12.13;8.15;;;21.10;84.20;;;;;;5075666;28;20407;-74
2021/09/16 12:08:03;;;;;;;12.90;9.75;;;21.20;84.00;;;;;;5074744;28;20045;-76
2021/09/16 12:10:45;;;;;;;13.13;9.88;;;21.20;85.10;;;;;;5071519;28;20055;-77
2021/09/16 12:13:13;;;;;;;12.88;8.48;;;21.20;84.70;;;;;;5054949;28;20029;-77
2021/09/16 12:15:39;;;;;;;11.43;8.23;;;21.20;84.60;;;;;;5054212;28;20027;-76
2021/09/16 12:18:06;;;;;;;12.45;8.20;;;21.40;87.00;;;;;;5060707;28;20033;-76
2021/09/16 12:20:32;;;;;;;13.10;8.02;;;21.60;85.20;;;;;;5073363;28;20021;-77
2021/09/16 12:22:58;;;;;;;11.73;8.75;;;21.70;84.70;;;;;;5059252;28;20033;-79
2021/09/16 12:25:26;;;;;;;13.13;9.45;;;21.50;84.30;;;;;;5053900;28;20070;-74
2021/09/16 12:28:05;;;;;;;11.65;8.60;;;21.40;85.50;;;;;;5052817;28;20033;-78
2021/09/16 12:30:35;;;;;;;14.95;10.23;;;21.30;87.30;;;;;;5054641;28;20021;-77